Portada
METAR-TAF:

METAR-TAF

Aeroports :

L'Havana, Cuba

latitud: 22-59N, longitud: 082-24W, altitud: 59 m

Observació

L'informe es va fer fa 58 minuts, a les 04:55 UTC
Vent 6 kt del Est/Nord-Est
Temperatura 24°C
Humitat 94%
Pressió 1015 hPa
Visibilitat: 9000 m
Escasses núvols a una alçada de 3000 ft

METAR: MUHA 210455Z 07006KT 9000 FEW030 24/23 Q1015

Hora: 01:53 (05:53 UTC)

Pronòstic

L'informe es va fer fa 53 minuts, a les 05:00 UTC
Pronòstic vàlid del 21 a les 06 UTC al 22 a les 06 UTC
Vent 7 kt del Est/Nord-Est
Visibilitat: 9000 m
Escasses núvols a una alçada de 2500 ft
Evolucionant progressivament
l' 21 a les 14 UTC al 21 a les 17 UTC
Vent 14 kt del Est/Nord-Est
Cel ennuvolat a una alçada de 3000 ft

TAF: MUHA 210500Z 2106/2206 07007KT 9000 FEW025 BECMG 2114/2117 06014KT BKN030

Observacions i pronòstics meteorològics de més de 4000 aeroports (METAR i TAF).

Les estacions disponibles són els punts grocs i vermells al mapa.

Posi el ratolí al punt desitjat per veure el nom de l'estació.

Feu clic per veure les observacions i els pronòstics meteorològics.

Per canviar el mapa: feu clic els botons verds amb una creu de color negre per apropar; al botó verd amb un guió per allunyar la imatge; o en les fletxes verdes per a mapes adjacents.


METAR-TAF: